Time;durP1;ratioP1;P1;durP2;ratioP2;P2;SDS_P1;SDS_P2;PMS_P1;PMS_P2;Temp;Humidity;BMP_temperature;BMP_pressure;BME280_temperature;BME280_humidity;BME280_pressure;Samples;Min_cycle;Max_cycle;Signal;HPM_P1;HPM_P2
2023/06/18 00:02:01;;;;;;;7.50;6.72;;;;;;;18.96;68.82;99992.44;6179460;23;20031;-91
2023/06/18 00:04:27;;;;;;;10.52;6.35;;;;;;;19.05;68.42;99994.16;6179328;22;20001;-91
2023/06/18 00:06:55;;;;;;;11.82;6.53;;;;;;;18.69;69.75;99985.53;6179484;22;20058;-91
2023/06/18 00:09:21;;;;;;;8.05;6.38;;;;;;;18.56;70.66;99981.50;6179532;22;20030;-91
2023/06/18 00:11:47;;;;;;;7.35;6.55;;;;;;;18.62;71.01;99974.84;6283192;22;20021;-90
2023/06/18 00:14:13;;;;;;;6.97;5.95;;;;;;;18.48;71.77;99976.19;6179349;22;20343;-89
2023/06/18 00:16:38;;;;;;;8.55;6.55;;;;;;;18.52;71.62;99971.50;6179184;23;20089;-90
2023/06/18 00:19:04;;;;;;;11.57;6.57;;;;;;;18.34;71.94;99977.56;6179255;23;20331;-91
2023/06/18 00:21:29;;;;;;;13.57;6.35;;;;;;;18.57;71.08;99967.47;6180350;23;20012;-90
2023/06/18 00:23:55;;;;;;;8.60;6.72;;;;;;;18.72;70.29;99970.34;6180732;23;20010;-90
2023/06/18 00:26:22;;;;;;;12.10;7.13;;;;;;;18.78;69.49;99968.97;6180920;22;20017;-90
2023/06/18 00:28:47;;;;;;;8.07;6.78;;;;;;;18.58;70.22;99969.13;6180553;23;20001;-90
2023/06/18 00:31:13;;;;;;;10.48;6.70;;;;;;;18.36;71.09;99967.78;6180613;22;20327;-90
2023/06/18 00:33:38;;;;;;;8.10;6.57;;;;;;;18.29;72.25;99964.13;6285129;22;20027;-90
2023/06/18 00:36:06;;;;;;;8.30;6.18;;;;;;;18.26;72.63;99948.75;6284858;22;20009;-90
2023/06/18 00:38:33;;;;;;;15.02;8.38;;;;;;;17.93;72.54;99945.81;6180728;23;20012;-90
2023/06/18 00:40:59;;;;;;;8.93;7.28;;;;;;;18.11;72.40;99945.00;6284929;22;20500;-91
2023/06/18 00:43:27;;;;;;;9.77;7.45;;;;;;;18.03;72.73;99947.56;6181211;22;20028;-91
2023/06/18 00:45:53;;;;;;;10.13;7.18;;;;;;;17.89;73.81;99947.09;6181109;22;20335;-90
2023/06/18 00:48:19;;;;;;;9.10;8.20;;;;;;;18.10;73.07;99951.22;6180936;22;20332;-90
2023/06/18 00:50:46;;;;;;;12.05;7.50;;;;;;;18.11;72.07;99952.84;6180463;23;20005;-89
2023/06/18 00:53:12;;;;;;;9.27;8.27;;;;;;;17.89;72.42;99941.03;6180797;22;20440;-90
2023/06/18 00:55:38;;;;;;;11.18;7.55;;;;;;;17.78;72.69;99929.00;6180619;23;20012;-91
2023/06/18 00:58:04;;;;;;;9.38;7.22;;;;;;;17.61;75.27;99932.41;6181101;22;20089;-91
2023/06/18 01:00:34;;;;;;;8.15;7.00;;;;;;;17.63;75.46;99936.50;6180413;22;20331;-90
2023/06/18 01:03:05;;;;;;;10.77;6.97;;;;;;;17.59;76.37;99934.34;6180707;23;20008;-90
2023/06/18 01:05:31;;;;;;;8.98;6.75;;;;;;;17.77;75.85;99943.00;6180636;22;20013;-91
2023/06/18 01:07:59;;;;;;;8.05;6.47;;;;;;;17.74;76.02;99944.13;6180872;22;20434;-90
2023/06/18 01:10:29;;;;;;;9.77;6.65;;;;;;;17.58;76.52;99943.13;6284291;22;20027;-90
2023/06/18 01:12:57;;;;;;;9.00;6.25;;;;;;;17.65;77.03;99950.22;6284802;22;20332;-90
2023/06/18 01:15:23;;;;;;;7.55;6.57;;;;;;;17.68;77.41;99944.72;6180547;22;20335;-91
2023/06/18 01:17:51;;;;;;;8.70;6.80;;;;;;;17.76;76.81;99942.19;6284232;22;20380;-90
2023/06/18 01:20:18;;;;;;;8.50;6.78;;;;;;;17.79;77.06;99950.69;6180237;22;20005;-90
2023/06/18 01:23:07;;;;;;;7.47;6.55;;;;;;;17.81;76.35;99941.78;6180880;22;20070;-90
2023/06/18 01:25:36;;;;;;;9.75;7.72;;;;;;;17.65;74.29;99937.16;6180503;22;20431;-90
2023/06/18 01:28:07;;;;;;;12.82;7.70;;;;;;;17.73;75.76;99949.50;6180737;22;20485;-90
2023/06/18 01:30:36;;;;;;;8.55;7.50;;;;;;;17.77;76.09;99956.06;6180213;23;20440;-90
2023/06/18 01:33:01;;;;;;;8.40;6.97;;;;;;;17.74;76.38;99946.72;6179796;22;20001;-90
2023/06/18 01:35:27;;;;;;;7.93;6.82;;;;;;;17.62;76.91;99944.47;6180701;22;20050;-91
2023/06/18 01:38:01;;;;;;;7.65;6.20;;;;;;;17.60;78.42;99941.19;6180519;23;20013;-90
2023/06/18 01:40:33;;;;;;;8.75;6.80;;;;;;;17.69;77.23;99929.88;6180764;22;20447;-90
2023/06/18 01:43:11;;;;;;;8.98;6.78;;;;;;;17.67;76.50;99926.59;6180564;22;20008;-91
2023/06/18 01:45:42;;;;;;;11.57;7.13;;;;;;;17.78;75.21;99923.78;6180408;23;20012;-91
2023/06/18 01:48:09;;;;;;;7.72;6.15;;;;;;;17.76;76.48;99930.94;6181011;22;20008;-90
2023/06/18 01:50:38;;;;;;;9.00;6.10;;;;;;;17.60;77.89;99925.53;6180545;22;20005;-90
2023/06/18 01:53:06;;;;;;;8.18;5.63;;;;;;;17.59;78.58;99929.13;6180231;22;20001;-90
2023/06/18 01:55:34;;;;;;;6.88;5.88;;;;;;;17.67;77.83;99916.16;6284464;22;20005;-90
2023/06/18 01:58:00;;;;;;;12.30;6.93;;;;;;;17.70;77.58;99915.84;6180404;22;20431;-90
2023/06/18 02:00:26;;;;;;;8.95;7.18;;;;;;;17.75;77.51;99914.47;6284105;22;20029;-90
2023/06/18 02:02:51;;;;;;;11.50;7.47;;;;;;;17.65;76.78;99912.84;6180411;23;20452;-90
2023/06/18 02:05:18;;;;;;;11.80;6.82;;;;;;;17.46;78.24;99922.44;6180043;22;20008;-91
2023/06/18 02:07:43;;;;;;;7.75;6.43;;;;;;;17.39;78.84;99916.16;6180522;22;20012;-90
2023/06/18 02:10:09;;;;;;;10.38;7.82;;;;;;;17.49;78.07;99913.50;6180085;23;20001;-90
2023/06/18 02:12:35;;;;;;;8.35;6.20;;;;;;;17.67;76.29;99918.75;6180554;22;20072;-90
2023/06/18 02:15:00;;;;;;;6.32;5.72;;;;;;;17.53;76.96;99915.69;6180214;23;20021;-90
2023/06/18 02:17:26;;;;;;;13.77;7.50;;;;;;;17.25;76.46;99914.84;6180369;23;20043;-90
2023/06/18 02:19:51;;;;;;;8.93;7.95;;;;;;;17.59;75.04;99903.03;6180319;23;20145;-90
2023/06/18 02:22:17;;;;;;;8.38;7.38;;;;;;;17.47;75.73;99911.03;6284317;22;20001;-90
2023/06/18 02:24:42;;;;;;;10.60;8.18;;;;;;;17.53;75.85;99904.41;6180136;23;20008;-91
2023/06/18 02:27:08;;;;;;;11.45;8.07;;;;;;;17.51;75.76;99904.56;6180432;22;20068;-90
2023/06/18 02:29:34;;;;;;;8.73;7.40;;;;;;;17.42;76.37;99902.00;6180226;22;20023;-90
2023/06/18 02:31:59;;;;;;;10.25;8.65;;;;;;;17.22;75.33;99885.66;6180538;22;19997;-90
2023/06/18 02:34:27;;;;;;;11.65;8.35;;;;;;;17.29;75.63;99877.09;6284041;22;20005;-90
2023/06/18 02:36:53;;;;;;;12.07;8.15;;;;;;;17.33;75.42;99880.22;6180678;23;20400;-90
2023/06/18 02:39:19;;;;;;;10.32;7.55;;;;;;;17.21;75.27;99878.78;6283447;22;20088;-89
2023/06/18 02:41:44;;;;;;;8.00;7.10;;;;;;;17.08;76.12;99869.50;6179958;23;20019;-91
2023/06/18 02:44:10;;;;;;;8.07;6.68;;;;;;;16.81;77.19;99877.28;6179309;23;20211;-90
2023/06/18 02:46:35;;;;;;;13.00;8.45;;;;;;;16.84;77.75;99887.41;6180235;22;20006;-90
2023/06/18 02:49:00;;;;;;;9.65;7.75;;;;;;;16.90;76.69;99889.47;6180673;22;20037;-90
2023/06/18 02:51:26;;;;;;;11.13;7.85;;;;;;;16.73;76.97;99871.91;6180076;23;20005;-90
2023/06/18 02:53:51;;;;;;;13.60;8.32;;;;;;;16.75;77.45;99878.63;6180228;22;20424;-90
2023/06/18 02:56:17;;;;;;;11.30;9.05;;;;;;;16.76;77.77;99879.47;6180106;23;20001;-90
2023/06/18 02:58:42;;;;;;;10.10;8.68;;;;;;;16.76;77.51;99874.25;6179940;22;20247;-89
2023/06/18 03:01:08;;;;;;;12.23;9.15;;;;;;;16.54;78.87;99881.44;6180035;22;20001;-90
2023/06/18 03:03:33;;;;;;;8.85;7.95;;;;;;;16.64;78.63;99871.81;6180295;22;20431;-90
2023/06/18 03:05:59;;;;;;;9.88;8.43;;;;;;;16.47;80.77;99872.53;6179712;23;20001;-91
2023/06/18 03:08:24;;;;;;;9.45;8.45;;;;;;;16.41;81.74;99868.72;6283540;22;20012;-90
2023/06/18 03:10:50;;;;;;;10.32;7.95;;;;;;;16.36;82.71;99872.69;6179896;22;20005;-90
2023/06/18 03:13:15;;;;;;;10.02;7.30;;;;;;;16.65;81.89;99870.03;6179966;22;20088;-90
2023/06/18 03:15:40;;;;;;;10.27;7.20;;;;;;;16.62;80.92;99865.91;6180079;22;20344;-90
2023/06/18 03:18:06;;;;;;;9.98;7.57;;;;;;;16.48;82.24;99866.34;6283881;22;20001;-90
2023/06/18 03:20:32;;;;;;;9.68;8.68;;;;;;;16.51;81.45;99860.88;6283547;22;20008;-91
2023/06/18 03:22:58;;;;;;;9.05;7.53;;;;;;;16.44;82.74;99857.19;6180022;22;20001;-90
2023/06/18 03:25:23;;;;;;;10.75;8.73;;;;;;;16.49;83.20;99860.19;6180085;22;20072;-91
2023/06/18 03:27:50;;;;;;;10.98;8.18;;;;;;;16.52;83.09;99854.69;6179927;22;20038;-90
2023/06/18 03:30:16;;;;;;;8.98;8.07;;;;;;;16.57;82.13;99844.69;6179733;23;20084;-90
2023/06/18 03:32:42;;;;;;;10.00;8.82;;;;;;;16.58;81.75;99848.94;6180333;23;20001;-90
2023/06/18 03:35:08;;;;;;;12.80;9.43;;;;;;;16.44;82.54;99844.16;6179702;22;20008;-90
2023/06/18 03:37:34;;;;;;;10.50;8.63;;;;;;;16.43;82.12;99853.75;6179931;23;20344;-90
2023/06/18 03:40:01;;;;;;;13.77;8.57;;;;;;;16.45;81.39;99858.81;6179759;22;19997;-89
2023/06/18 03:42:26;;;;;;;9.02;7.43;;;;;;;16.21;81.79;99862.69;6179716;22;20003;-90
2023/06/18 03:44:51;;;;;;;10.55;8.02;;;;;;;16.09;82.60;99855.97;6283390;22;20025;-90
2023/06/18 03:47:17;;;;;;;12.70;7.90;;;;;;;16.09;82.64;99848.16;6179410;23;20076;-91
2023/06/18 03:49:43;;;;;;;10.60;8.77;;;;;;;16.01;83.71;99848.06;6283202;22;20009;-91
2023/06/18 03:52:08;;;;;;;11.43;10.23;;;;;;;15.78;85.80;99850.94;6283482;22;20013;-90
2023/06/18 03:54:35;;;;;;;11.77;9.77;;;;;;;16.18;83.35;99860.38;6179665;23;20009;-90
2023/06/18 03:57:01;;;;;;;10.82;9.25;;;;;;;16.29;81.67;99853.34;6180747;23;20085;-91
2023/06/18 03:59:27;;;;;;;10.23;9.13;;;;;;;16.24;82.03;99854.63;6285238;22;20393;-91
2023/06/18 04:01:52;;;;;;;12.57;9.57;;;;;;;16.24;82.01;99846.81;6180621;23;20086;-90
2023/06/18 04:04:17;;;;;;;11.63;8.80;;;;;;;16.21;82.50;99849.66;6181229;22;20058;-89
2023/06/18 04:06:43;;;;;;;11.25;9.00;;;;;;;16.20;82.29;99837.63;6181097;22;20027;-90
2023/06/18 04:09:08;;;;;;;12.63;9.77;;;;;;;16.29;82.65;99835.97;6180676;23;20001;-89
2023/06/18 04:11:38;;;;;;;9.98;8.95;;;;;;;16.20;82.88;99829.81;6284875;22;20112;-91
2023/06/18 04:14:04;;;;;;;11.38;9.35;;;;;;;16.12;83.13;99839.25;6180828;22;20447;-90
2023/06/18 04:16:29;;;;;;;9.50;8.13;;;;;;;16.10;83.83;99842.03;6285021;22;20037;-90
2023/06/18 04:18:54;;;;;;;11.43;9.93;;;;;;;16.18;81.81;99834.34;6180664;23;20412;-89
2023/06/18 04:21:20;;;;;;;13.88;9.15;;;;;;;15.89;83.11;99838.75;6284563;22;20001;-90
2023/06/18 04:23:46;;;;;;;12.07;9.57;;;;;;;15.80;83.84;99841.22;6181217;22;20101;-90
2023/06/18 04:26:11;;;;;;;11.35;10.00;;;;;;;15.90;83.99;99840.38;6285106;22;20005;-90
2023/06/18 04:28:36;;;;;;;11.75;9.27;;;;;;;16.03;83.78;99849.56;6180633;23;20088;-90
2023/06/18 04:31:02;;;;;;;13.93;10.00;;;;;;;16.07;83.50;99847.50;6180447;23;20001;-90
2023/06/18 04:33:27;;;;;;;14.20;12.48;;;;;;;16.11;82.54;99835.03;6180726;23;20001;-90
2023/06/18 04:35:53;;;;;;;12.35;10.85;;;;;;;16.16;82.77;99838.84;6180780;23;20387;-91
2023/06/18 04:38:18;;;;;;;14.77;10.70;;;;;;;16.10;82.77;99839.41;6284655;22;20009;-90
2023/06/18 04:40:43;;;;;;;13.48;9.48;;;;;;;16.05;83.39;99842.44;6284745;22;20692;-89
2023/06/18 04:43:09;;;;;;;11.23;9.57;;;;;;;16.14;83.37;99842.56;6180613;22;20031;-91
2023/06/18 04:45:34;;;;;;;14.07;9.38;;;;;;;16.26;82.93;99855.31;6180708;22;20001;-90
2023/06/18 04:47:59;;;;;;;16.90;8.90;;;;;;;16.32;81.97;99855.72;6180960;23;20001;-90
2023/06/18 04:50:25;;;;;;;11.50;9.68;;;;;;;16.63;79.87;99843.28;6284722;22;20062;-89
2023/06/18 04:52:50;;;;;;;12.45;9.85;;;;;;;16.36;81.02;99836.22;6180880;22;20005;-90
2023/06/18 04:55:16;;;;;;;13.88;11.43;;;;;;;16.26;81.22;99841.44;6181162;22;20009;-90
2023/06/18 04:57:41;;;;;;;14.90;10.00;;;;;;;16.31;82.45;99843.63;6181102;23;20001;-90
2023/06/18 05:00:08;;;;;;;9.98;8.98;;;;;;;16.40;83.79;99837.59;6180859;23;20488;-90
2023/06/18 05:02:34;;;;;;;11.60;9.60;;;;;;;16.33;84.48;99844.31;6181370;22;20032;-91
2023/06/18 05:04:59;;;;;;;11.23;8.50;;;;;;;16.46;83.77;99847.47;6181147;23;20032;-90
2023/06/18 05:07:25;;;;;;;11.02;8.60;;;;;;;16.59;84.49;99842.75;6180454;22;20079;-90
2023/06/18 05:09:50;;;;;;;11.95;10.40;;;;;;;16.63;83.99;99854.53;6180858;22;20009;-89
2023/06/18 05:12:16;;;;;;;10.85;9.38;;;;;;;16.59;85.03;99855.78;6284423;22;20035;-90
2023/06/18 05:14:41;;;;;;;13.80;10.18;;;;;;;16.60;85.14;99854.81;6180614;23;20070;-90
2023/06/18 05:17:07;;;;;;;11.13;9.98;;;;;;;16.76;85.39;99856.84;6284372;22;20012;-89
2023/06/18 05:19:32;;;;;;;10.32;9.32;;;;;;;16.86;86.00;99844.59;6284501;22;20012;-91
2023/06/18 05:21:58;;;;;;;10.02;8.93;;;;;;;16.83;87.11;99839.69;6180556;22;20008;-89
2023/06/18 05:24:23;;;;;;;11.98;10.63;;;;;;;16.92;87.77;99845.00;6180415;22;20032;-90
2023/06/18 05:26:49;;;;;;;10.55;8.63;;;;;;;16.89;86.92;99851.31;6180421;23;20008;-89
2023/06/18 05:29:16;;;;;;;12.43;9.43;;;;;;;16.86;84.87;99854.22;6180596;22;20009;-90
2023/06/18 05:31:41;;;;;;;10.05;8.63;;;;;;;16.93;84.01;99849.28;6180675;22;20009;-90
2023/06/18 05:34:06;;;;;;;11.90;9.70;;;;;;;17.01;83.18;99847.56;6180615;22;20501;-91
2023/06/18 05:36:32;;;;;;;11.88;9.27;;;;;;;17.12;81.77;99849.19;6180491;22;20006;-90
2023/06/18 05:39:00;;;;;;;10.00;8.65;;;;;;;17.25;81.76;99848.84;6180432;22;20473;-90
2023/06/18 05:41:26;;;;;;;11.45;7.93;;;;;;;17.44;82.11;99853.94;6180602;22;20005;-91
2023/06/18 05:43:52;;;;;;;10.30;8.75;;;;;;;17.45;82.74;99846.94;6180303;22;20024;-89
2023/06/18 05:46:18;;;;;;;9.80;8.73;;;;;;;17.56;81.48;99846.72;6180376;22;19997;-90
2023/06/18 05:48:43;;;;;;;11.10;9.23;;;;;;;17.66;79.35;99837.03;6284220;22;20004;-90
2023/06/18 05:51:08;;;;;;;11.63;9.57;;;;;;;17.73;78.24;99832.06;6284106;22;20009;-90
2023/06/18 05:53:34;;;;;;;15.85;9.48;;;;;;;17.96;77.87;99828.03;6180082;23;20005;-90
2023/06/18 05:55:59;;;;;;;12.75;8.90;;;;;;;18.20;79.19;99833.59;6180476;22;20001;-90
2023/06/18 05:58:24;;;;;;;9.60;8.60;;;;;;;18.25;77.83;99826.94;6180420;22;20012;-89
2023/06/18 06:00:50;;;;;;;10.60;8.40;;;;;;;18.49;77.04;99833.31;6179906;23;20009;-90
2023/06/18 06:03:15;;;;;;;13.52;8.90;;;;;;;18.66;75.64;99829.81;6180343;22;20008;-90
2023/06/18 06:05:41;;;;;;;11.18;9.60;;;;;;;18.78;73.68;99833.84;6180102;23;20066;-90
2023/06/18 06:08:06;;;;;;;16.20;10.95;;;;;;;19.04;74.15;99830.34;6283756;22;20009;-90
2023/06/18 06:10:31;;;;;;;12.68;9.70;;;;;;;19.57;70.92;99829.16;6179983;23;20072;-90
2023/06/18 06:12:57;;;;;;;14.40;9.40;;;;;;;20.98;64.19;99821.03;6283624;22;20431;-90
2023/06/18 06:15:22;;;;;;;11.15;9.98;;;;;;;21.96;61.11;99822.25;6180007;23;20005;-90
2023/06/18 06:17:48;;;;;;;16.50;8.88;;;;;;;22.94;57.12;99821.25;6283857;22;20416;-90
2023/06/18 06:20:13;;;;;;;12.10;8.55;;;;;;;23.28;55.34;99827.75;6180006;22;20050;-91
2023/06/18 06:22:38;;;;;;;12.93;7.97;;;;;;;23.81;53.12;99827.50;6179957;22;20043;-90
2023/06/18 06:25:04;;;;;;;13.50;8.38;;;;;;;23.78;53.07;99833.97;6180208;22;20009;-90
2023/06/18 06:27:30;;;;;;;11.32;8.35;;;;;;;22.72;55.40;99837.97;6179955;22;20005;-90
2023/06/18 06:29:55;;;;;;;8.05;7.25;;;;;;;22.24;56.77;99838.31;6179839;22;20416;-90
2023/06/18 06:32:21;;;;;;;12.43;9.23;;;;;;;22.72;55.78;99840.59;6283624;22;20445;-90
2023/06/18 06:34:47;;;;;;;11.05;7.93;;;;;;;23.05;54.92;99841.88;6179997;23;20016;-90
2023/06/18 06:37:12;;;;;;;11.57;9.63;;;;;;;23.39;53.06;99839.63;6179940;23;20080;-90
2023/06/18 06:39:38;;;;;;;13.13;9.95;;;;;;;23.16;53.74;99839.75;6179886;22;20451;-90
2023/06/18 06:42:03;;;;;;;11.40;8.85;;;;;;;23.69;51.85;99840.31;6179916;22;20039;-91
2023/06/18 06:44:29;;;;;;;12.05;9.68;;;;;;;23.43;52.49;99852.22;6283611;22;20001;-90
2023/06/18 06:46:54;;;;;;;15.23;9.73;;;;;;;22.75;53.61;99848.13;6180002;23;20009;-90
2023/06/18 06:49:20;;;;;;;13.05;9.38;;;;;;;22.38;54.63;99852.44;6179818;23;20005;-90
2023/06/18 06:51:45;;;;;;;11.73;10.48;;;;;;;22.11;54.85;99852.00;6283123;22;20016;-89
2023/06/18 06:54:11;;;;;;;10.45;9.35;;;;;;;22.47;54.23;99855.81;6180024;23;20008;-90
2023/06/18 06:56:36;;;;;;;11.02;8.73;;;;;;;22.70;52.94;99853.09;6179743;23;20054;-90
2023/06/18 06:59:02;;;;;;;11.98;9.50;;;;;;;22.08;53.81;99852.34;6179519;23;20005;-89
2023/06/18 07:01:27;;;;;;;12.18;8.60;;;;;;;21.82;55.80;99851.91;6179679;23;20001;-90
2023/06/18 07:03:53;;;;;;;13.07;9.93;;;;;;;21.39;56.94;99852.34;6179797;23;20001;-90
2023/06/18 07:06:18;;;;;;;10.45;9.27;;;;;;;21.39;57.95;99849.72;6179957;22;20012;-90
2023/06/18 07:08:43;;;;;;;14.73;8.90;;;;;;;21.43;57.92;99850.19;6179878;22;20350;-90
2023/06/18 07:11:09;;;;;;;14.10;9.50;;;;;;;21.88;55.84;99838.09;6179856;22;20332;-89
2023/06/18 07:13:34;;;;;;;12.57;10.23;;;;;;;21.99;55.31;99851.59;6179812;22;20037;-89
2023/06/18 07:16:00;;;;;;;11.55;10.23;;;;;;;21.80;55.76;99847.66;6179750;23;20011;-90
2023/06/18 07:18:26;;;;;;;14.55;10.52;;;;;;;21.77;55.14;99847.97;6179714;23;20454;-90
2023/06/18 07:20:52;;;;;;;13.30;11.23;;;;;;;21.78;54.79;99856.72;6179437;23;20001;-91
2023/06/18 07:23:17;;;;;;;12.77;11.18;;;;;;;22.40;54.00;99855.72;6179546;23;20001;-89
2023/06/18 07:25:42;;;;;;;13.27;10.75;;;;;;;22.96;51.63;99845.56;6179548;23;20002;-90
2023/06/18 07:28:08;;;;;;;16.63;11.68;;;;;;;22.63;51.44;99847.78;6283001;22;19998;-89
2023/06/18 07:30:33;;;;;;;14.70;11.23;;;;;;;22.82;50.83;99849.03;6179801;23;20064;-90
2023/06/18 07:32:58;;;;;;;13.23;10.93;;;;;;;22.98;50.96;99848.88;6180882;23;20504;-90
2023/06/18 07:35:24;;;;;;;11.60;8.77;;;;;;;23.79;49.23;99846.13;6181059;23;20541;-91
2023/06/18 07:37:49;;;;;;;13.52;9.77;;;;;;;24.04;48.59;99848.38;6285225;22;20446;-90
2023/06/18 07:40:15;;;;;;;12.30;10.48;;;;;;;23.74;48.17;99848.50;6180601;22;20454;-90
2023/06/18 07:42:41;;;;;;;11.20;9.63;;;;;;;23.94;48.46;99843.41;6181194;23;20007;-90
2023/06/18 07:45:06;;;;;;;13.25;11.07;;;;;;;24.29;47.67;99856.69;6180741;22;20076;-90
2023/06/18 07:47:32;;;;;;;17.27;9.70;;;;;;;24.15;48.54;99853.13;6180617;23;20002;-90
2023/06/18 07:49:58;;;;;;;17.42;10.55;;;;;;;23.44;49.16;99853.06;6180633;22;20005;-90
2023/06/18 07:52:24;;;;;;;14.77;10.10;;;;;;;22.82;50.44;99860.38;6285293;22;20005;-90
2023/06/18 07:54:49;;;;;;;13.52;10.73;;;;;;;22.05;52.38;99852.72;6285318;22;20005;-90
2023/06/18 07:57:15;;;;;;;11.90;8.82;;;;;;;22.13;53.34;99850.00;6180678;23;20027;-90
2023/06/18 07:59:41;;;;;;;10.35;8.88;;;;;;;22.21;52.96;99842.09;6284407;22;20009;-89
2023/06/18 08:02:06;;;;;;;11.73;10.50;;;;;;;22.19;54.49;99841.44;6180709;22;20009;-90
2023/06/18 08:04:31;;;;;;;13.20;9.43;;;;;;;22.59;52.20;99836.78;6180643;23;20028;-90
2023/06/18 08:06:57;;;;;;;13.93;10.43;;;;;;;22.71;51.88;99841.59;6180555;22;20005;-90
2023/06/18 08:09:22;;;;;;;15.15;9.95;;;;;;;23.27;51.03;99837.47;6180467;23;20301;-90
2023/06/18 08:11:48;;;;;;;10.18;9.18;;;;;;;23.63;50.30;99843.69;6180726;22;20039;-90
2023/06/18 08:14:13;;;;;;;14.38;11.85;;;;;;;24.40;48.50;99837.69;6284823;22;20009;-90
2023/06/18 08:16:39;;;;;;;22.63;11.10;;;;;;;24.95;46.54;99827.25;6180607;22;20001;-90
2023/06/18 08:19:05;;;;;;;11.18;9.88;;;;;;;25.84;45.54;99835.00;6180505;23;20034;-90
2023/06/18 08:21:30;;;;;;;14.18;10.18;;;;;;;26.54;43.05;99828.50;6284629;22;20020;-90
2023/06/18 08:23:56;;;;;;;12.88;11.25;;;;;;;26.85;42.44;99825.97;6180514;23;20005;-90
2023/06/18 08:26:22;;;;;;;11.57;9.52;;;;;;;27.15;40.80;99828.06;6180627;23;20001;-91
2023/06/18 08:28:49;;;;;;;16.05;8.82;;;;;;;27.98;40.49;99824.50;6180480;23;20001;-91
2023/06/18 08:31:14;;;;;;;13.98;10.32;;;;;;;28.00;39.22;99819.81;6180598;22;20021;-91
2023/06/18 08:33:40;;;;;;;11.57;10.32;;;;;;;27.93;38.33;99811.91;6180404;23;20012;-91
2023/06/18 08:36:05;;;;;;;12.02;9.23;;;;;;;28.10;38.84;99806.84;6180435;23;20046;-91
2023/06/18 08:38:30;;;;;;;12.93;8.75;;;;;;;28.07;39.62;99809.94;6180761;22;20336;-92
2023/06/18 08:41:01;;;;;;;11.35;7.70;;;;;;;27.88;39.91;99806.44;6180409;23;20083;-91
2023/06/18 08:43:31;;;;;;;11.02;8.23;;;;;;;28.37;38.84;99801.28;6284573;22;20063;-92
2023/06/18 08:46:02;;;;;;;11.05;8.43;;;;;;;28.53;39.02;99789.28;6180495;23;20009;-91
2023/06/18 08:48:28;;;;;;;10.43;9.13;;;;;;;29.21;38.94;99780.28;6284683;22;20080;-91
2023/06/18 08:51:04;;;;;;;8.43;7.40;;;;;;;29.64;37.42;99781.88;6284520;22;20035;-91
2023/06/18 08:53:54;;;;;;;10.45;8.32;;;;;;;28.37;39.75;99791.47;6284462;22;20012;-91
2023/06/18 08:56:22;;;;;;;11.30;8.60;;;;;;;27.69;40.64;99789.63;6180577;22;20050;-92
2023/06/18 08:58:50;;;;;;;10.90;8.10;;;;;;;28.37;39.96;99793.31;6284228;22;20009;-91
2023/06/18 09:01:16;;;;;;;11.20;8.30;;;;;;;28.73;39.51;99789.06;6284960;22;20005;-90
2023/06/18 09:03:42;;;;;;;11.80;7.53;;;;;;;28.63;40.24;99788.75;6180373;23;20046;-91
2023/06/18 09:06:08;;;;;;;13.95;8.63;;;;;;;27.90;40.84;99799.09;6180345;22;20050;-90
2023/06/18 09:08:36;;;;;;;9.63;7.13;;;;;;;27.85;41.63;99798.09;6180704;22;20009;-91
2023/06/18 09:11:02;;;;;;;8.35;5.63;;;;;;;28.58;41.54;99798.22;6180249;23;20454;-90
2023/06/18 09:13:27;;;;;;;11.52;7.45;;;;;;;28.64;40.41;99790.41;6180169;23;20033;-90
2023/06/18 09:15:53;;;;;;;8.93;6.78;;;;;;;28.99;40.72;99793.22;6180705;22;20001;-91
2023/06/18 09:18:21;;;;;;;6.80;5.85;;;;;;;28.93;41.06;99781.66;6180544;22;20394;-91
2023/06/18 09:20:48;;;;;;;9.82;7.25;;;;;;;29.03;40.29;99789.09;6284286;22;20458;-90
2023/06/18 09:23:13;;;;;;;12.25;6.70;;;;;;;29.10;40.80;99783.72;6180352;22;20005;-91
2023/06/18 09:25:38;;;;;;;9.63;7.25;;;;;;;28.80;40.96;99781.84;6180288;23;20005;-91
2023/06/18 09:28:04;;;;;;;12.52;8.07;;;;;;;27.73;42.75;99768.81;6180540;22;20008;-91
2023/06/18 09:30:29;;;;;;;6.47;5.85;;;;;;;28.75;41.99;99769.22;6180038;23;20012;-91
2023/06/18 09:32:59;;;;;;;10.00;7.63;;;;;;;28.22;42.20;99777.75;6284167;22;20519;-90
2023/06/18 09:35:25;;;;;;;11.10;8.25;;;;;;;28.01;42.68;99778.16;6180378;23;20019;-91
2023/06/18 09:37:50;;;;;;;8.00;6.03;;;;;;;27.89;43.93;99767.47;6284184;22;20002;-91
2023/06/18 09:40:20;;;;;;;8.75;7.47;;;;;;;27.79;43.69;99767.13;6180232;22;20009;-91
2023/06/18 09:42:48;;;;;;;10.00;7.47;;;;;;;27.93;43.19;99766.00;6180070;22;20005;-90
2023/06/18 09:45:15;;;;;;;11.82;6.85;;;;;;;28.31;43.13;99765.00;6180220;23;20005;-90
2023/06/18 09:47:43;;;;;;;10.02;7.65;;;;;;;27.91;43.40;99749.50;6284051;22;20012;-91
2023/06/18 09:50:10;;;;;;;9.95;8.68;;;;;;;27.70;43.46;99748.84;6284071;22;20207;-90
2023/06/18 09:52:47;;;;;;;12.05;7.85;;;;;;;27.07;44.71;99751.50;6180016;22;20098;-90
2023/06/18 09:55:32;;;;;;;11.27;8.60;;;;;;;26.78;45.73;99755.53;6180140;22;20324;-90
2023/06/18 09:57:59;;;;;;;11.40;8.70;;;;;;;26.32;46.67;99761.78;6180677;22;20008;-90
2023/06/18 10:00:25;;;;;;;12.43;9.02;;;;;;;26.05;47.28;99754.69;6179995;23;20017;-90
2023/06/18 10:02:51;;;;;;;11.60;8.45;;;;;;;26.24;47.20;99760.16;6180138;22;20005;-90
2023/06/18 10:05:16;;;;;;;9.85;8.38;;;;;;;26.19;47.25;99752.00;6180004;23;20091;-90
2023/06/18 10:07:43;;;;;;;11.43;7.97;;;;;;;26.82;46.08;99757.53;6283649;22;20001;-90
2023/06/18 10:10:16;;;;;;;10.68;8.80;;;;;;;26.43;45.88;99751.34;6283740;22;20001;-90
2023/06/18 10:12:48;;;;;;;11.10;8.40;;;;;;;26.94;45.83;99748.91;6180062;22;20331;-91
2023/06/18 10:15:15;;;;;;;10.18;8.85;;;;;;;26.91;46.42;99744.84;6180296;22;20001;-91
2023/06/18 10:17:47;;;;;;;10.30;8.20;;;;;;;27.50;44.93;99742.88;6180233;22;20006;-91
2023/06/18 10:20:15;;;;;;;17.13;9.10;;;;;;;27.95;43.16;99738.22;6180023;22;20012;-91
2023/06/18 10:22:48;;;;;;;11.63;9.43;;;;;;;28.24;42.62;99732.41;6180140;23;20115;-91
2023/06/18 10:25:13;;;;;;;14.55;10.10;;;;;;;27.81;43.57;99731.41;6179936;23;20004;-90
2023/06/18 10:27:39;;;;;;;10.05;8.57;;;;;;;28.55;42.99;99729.63;6180090;23;20017;-91
2023/06/18 10:30:06;;;;;;;12.98;8.18;;;;;;;29.01;42.63;99728.19;6283560;22;20009;-90
2023/06/18 10:32:33;;;;;;;8.13;7.28;;;;;;;28.84;41.74;99721.91;6283941;22;20032;-91
2023/06/18 10:35:01;;;;;;;13.77;8.30;;;;;;;28.88;42.95;99722.28;6179834;22;20009;-91
2023/06/18 10:37:27;;;;;;;12.65;8.73;;;;;;;28.38;42.45;99733.88;6283918;22;20335;-92
2023/06/18 10:39:54;;;;;;;10.65;8.40;;;;;;;27.64;44.42;99738.28;6180275;22;19997;-91
2023/06/18 10:42:20;;;;;;;12.48;8.20;;;;;;;28.07;43.89;99732.22;6179928;23;20370;-91
2023/06/18 10:44:53;;;;;;;9.90;8.02;;;;;;;27.54;44.76;99738.78;6283456;22;20005;-91
2023/06/18 10:47:22;;;;;;;12.23;8.98;;;;;;;27.26;45.18;99740.00;6283673;22;20029;-91
2023/06/18 10:50:07;;;;;;;13.68;9.88;;;;;;;27.72;44.87;99741.47;6179716;22;20495;-91
2023/06/18 10:52:38;;;;;;;9.60;7.97;;;;;;;28.00;44.79;99734.94;6180732;22;20001;-90
2023/06/18 10:55:18;;;;;;;11.93;10.05;;;;;;;27.38;44.91;99726.84;6180074;22;20024;-90
2023/06/18 10:57:46;;;;;;;10.67;8.50;;;;;;;27.50;45.80;99727.78;6179632;23;20006;-91
2023/06/18 11:00:19;;;;;;;9.95;8.30;;;;;;;27.17;46.00;99727.19;6180112;22;20262;-91
2023/06/18 11:02:46;;;;;;;10.57;7.57;;;;;;;27.71;44.90;99728.44;6180071;22;20016;-90
2023/06/18 11:05:22;;;;;;;8.65;7.72;;;;;;;27.40;46.77;99726.66;6179189;22;20062;-90
2023/06/18 11:07:59;;;;;;;11.32;8.30;;;;;;;27.86;44.87;99725.47;6283184;22;20008;-91
2023/06/18 11:10:32;;;;;;;9.00;7.40;;;;;;;28.17;44.29;99720.03;6179741;22;20015;-91
2023/06/18 11:12:57;;;;;;;9.45;7.72;;;;;;;27.81;45.11;99727.94;6283287;22;20317;-91
2023/06/18 11:15:23;;;;;;;10.05;7.63;;;;;;;27.04;46.61;99725.44;6179804;22;20008;-90
2023/06/18 11:17:53;;;;;;;12.73;8.07;;;;;;;27.17;46.74;99724.56;6283315;22;20043;-91
2023/06/18 11:20:23;;;;;;;10.73;8.20;;;;;;;27.51;45.51;99718.00;6179678;22;20006;-91
2023/06/18 11:22:55;;;;;;;8.40;7.55;;;;;;;27.88;44.48;99713.63;6179842;22;20004;-91
2023/06/18 11:25:20;;;;;;;14.73;9.43;;;;;;;27.75;44.95;99708.38;6180026;22;20005;-91